Time;durP1;ratioP1;P1;durP2;ratioP2;P2;SDS_P1;SDS_P2;PMS_P1;PMS_P2;Temp;Humidity;BMP_temperature;BMP_pressure;BME280_temperature;BME280_humidity;BME280_pressure;Samples;Min_cycle;Max_cycle;Signal;HPM_P1;HPM_P2
2022/04/28 00:01:28;;;;;;;3.83;3.43;;;17.70;75.10;;;;;;5056803;23;20548;-68
2022/04/28 00:03:58;;;;;;;6.77;3.50;;;17.70;75.90;;;;;;5047953;28;20428;-68
2022/04/28 00:06:27;;;;;;;4.23;3.20;;;17.70;75.20;;;;;;5032897;28;20800;-68
2022/04/28 00:08:53;;;;;;;5.87;3.67;;;17.70;75.30;;;;;;5064386;28;20198;-68
2022/04/28 00:11:21;;;;;;;4.23;3.27;;;17.60;75.20;;;;;;5052576;28;20410;-68
2022/04/28 00:13:50;;;;;;;3.47;3.00;;;17.60;75.20;;;;;;5052708;28;20890;-68
2022/04/28 00:16:16;;;;;;;5.13;3.43;;;17.60;75.20;;;;;;5035083;28;20433;-68
2022/04/28 00:18:44;;;;;;;3.97;3.10;;;17.60;75.20;;;;;;5051545;28;20209;-68
2022/04/28 00:21:10;;;;;;;5.63;3.57;;;17.60;75.20;;;;;;5052636;28;20810;-69
2022/04/28 00:23:38;;;;;;;4.00;3.40;;;17.60;75.30;;;;;;5052350;28;20976;-68
2022/04/28 00:26:06;;;;;;;4.47;3.47;;;17.60;75.30;;;;;;5052487;28;20910;-68
2022/04/28 00:28:33;;;;;;;5.97;3.40;;;17.50;75.30;;;;;;5052522;28;20498;-68
2022/04/28 00:30:58;;;;;;;4.13;3.47;;;17.50;75.30;;;;;;5034858;28;20942;-68
2022/04/28 00:33:25;;;;;;;4.80;3.97;;;17.50;75.30;;;;;;5051421;28;20404;-68
2022/04/28 00:35:51;;;;;;;3.83;3.30;;;17.50;75.40;;;;;;5034787;28;20452;-68
2022/04/28 00:38:17;;;;;;;4.43;3.20;;;17.50;75.40;;;;;;5052454;28;20433;-68
2022/04/28 00:40:45;;;;;;;6.03;3.53;;;17.40;75.30;;;;;;5053680;28;20393;-68
2022/04/28 00:43:20;;;;;;;4.17;3.77;;;17.40;75.30;;;;;;5054592;28;20455;-68
2022/04/28 00:45:48;;;;;;;6.60;3.30;;;17.40;75.40;;;;;;5056028;28;20437;-68
2022/04/28 00:51:01;;;;;;;7.00;4.27;;;17.40;75.40;;;;;;5054647;28;20398;-68
2022/04/28 00:53:33;;;;;;;4.60;3.80;;;17.40;75.40;;;;;;5038179;28;20504;-68
2022/04/28 00:56:02;;;;;;;4.20;3.80;;;17.30;75.30;;;;;;5038232;28;20414;-68
2022/04/28 00:58:28;;;;;;;3.60;3.30;;;17.30;75.30;;;;;;5037873;28;20957;-69
2022/04/28 01:00:55;;;;;;;5.60;4.10;;;17.30;75.40;;;;;;5038064;28;20490;-69
2022/04/28 01:03:30;;;;;;;5.10;3.77;;;17.30;75.30;;;;;;5055487;28;20606;-68
2022/04/28 01:05:59;;;;;;;4.03;3.50;;;17.30;75.30;;;;;;5021567;28;20426;-68
2022/04/28 01:08:29;;;;;;;4.20;3.50;;;17.30;75.40;;;;;;5037823;28;20431;-68
2022/04/28 01:11:04;;;;;;;5.70;3.53;;;17.20;75.30;;;;;;5038346;28;20926;-68
2022/04/28 01:13:34;;;;;;;3.80;3.10;;;17.20;75.40;;;;;;5054339;28;20397;-68
2022/04/28 01:16:13;;;;;;;3.90;3.50;;;17.20;75.40;;;;;;5054177;28;20839;-68
2022/04/28 01:18:42;;;;;;;4.37;3.60;;;17.20;75.50;;;;;;5037660;28;20978;-68
2022/04/28 01:21:08;;;;;;;4.90;3.80;;;17.20;75.50;;;;;;5037560;28;20503;-68
2022/04/28 01:23:39;;;;;;;4.30;3.90;;;17.10;75.30;;;;;;5054072;28;20447;-68
2022/04/28 01:26:06;;;;;;;4.90;3.63;;;17.10;75.30;;;;;;5021306;28;20911;-68
2022/04/28 01:28:33;;;;;;;6.20;4.27;;;17.10;75.40;;;;;;5037438;28;20427;-68
2022/04/28 01:31:06;;;;;;;5.20;4.10;;;17.10;75.40;;;;;;5037438;28;20432;-68
2022/04/28 01:33:40;;;;;;;7.17;4.33;;;17.10;75.50;;;;;;5022103;28;20874;-68
2022/04/28 01:36:10;;;;;;;4.77;4.07;;;17.10;75.50;;;;;;5053899;28;20492;-68
2022/04/28 01:38:39;;;;;;;6.37;5.00;;;17.10;75.40;;;;;;5037413;28;20527;-68
2022/04/28 01:41:08;;;;;;;6.07;3.90;;;17.00;75.40;;;;;;5037511;28;20419;-68
2022/04/28 01:43:36;;;;;;;5.80;4.00;;;17.00;75.50;;;;;;5037052;28;20445;-68
2022/04/28 01:46:02;;;;;;;4.67;4.00;;;17.00;75.40;;;;;;5053860;28;20427;-68
2022/04/28 01:48:52;;;;;;;6.47;4.30;;;17.00;75.50;;;;;;5023934;28;20848;-68
2022/04/28 01:54:57;;;;;;;4.30;3.90;;;17.00;75.60;;;;;;5037526;28;20424;-68
2022/04/28 01:57:46;;;;;;;7.70;4.67;;;16.90;75.50;;;;;;5053543;28;20450;-68
2022/04/28 02:00:24;;;;;;;5.53;4.90;;;16.90;75.60;;;;;;5053405;28;20401;-68
2022/04/28 02:02:59;;;;;;;4.73;4.03;;;16.90;75.60;;;;;;5036612;28;20460;-68
2022/04/28 02:05:26;;;;;;;5.03;4.53;;;16.90;75.70;;;;;;5037061;28;20764;-68
2022/04/28 02:07:53;;;;;;;5.33;4.70;;;16.80;75.50;;;;;;5036792;28;20443;-68
2022/04/28 02:10:21;;;;;;;5.33;4.00;;;16.80;75.50;;;;;;5053183;28;20408;-68
2022/04/28 02:12:47;;;;;;;6.03;4.50;;;16.80;75.50;;;;;;5020178;28;20460;-68
2022/04/28 02:15:37;;;;;;;6.73;4.73;;;16.80;75.50;;;;;;5025563;28;20436;-68
2022/04/28 02:18:26;;;;;;;8.60;5.47;;;16.80;75.50;;;;;;5054304;28;20452;-68
2022/04/28 02:20:54;;;;;;;8.80;4.80;;;16.80;75.70;;;;;;5036424;28;20428;-68
2022/04/28 02:23:27;;;;;;;7.03;4.07;;;16.80;75.70;;;;;;5036625;28;20453;-68
2022/04/28 02:25:55;;;;;;;5.70;4.53;;;16.80;75.70;;;;;;5052937;28;20449;-68
2022/04/28 02:28:21;;;;;;;4.97;4.47;;;16.80;75.70;;;;;;5036191;28;20798;-68
2022/04/28 02:30:48;;;;;;;9.13;5.10;;;16.70;75.60;;;;;;5052835;28;20401;-68
2022/04/28 02:33:16;;;;;;;5.03;4.50;;;16.70;75.70;;;;;;5052588;28;20906;-68
2022/04/28 02:35:48;;;;;;;5.73;4.77;;;16.70;75.70;;;;;;5052784;28;20439;-68
2022/04/28 02:38:14;;;;;;;6.40;4.50;;;16.70;75.80;;;;;;5052570;28;20431;-68
2022/04/28 02:40:40;;;;;;;6.20;5.40;;;16.60;75.70;;;;;;5052685;28;20940;-68
2022/04/28 02:43:07;;;;;;;5.20;4.40;;;16.70;75.80;;;;;;5052467;28;20280;-68
2022/04/28 02:45:33;;;;;;;7.43;4.70;;;16.60;75.60;;;;;;5036016;28;20785;-68
2022/04/28 02:48:02;;;;;;;6.70;4.60;;;16.60;75.60;;;;;;5035914;28;20447;-68
2022/04/28 02:50:31;;;;;;;5.13;4.60;;;16.60;75.60;;;;;;5052452;28;20441;-68
2022/04/28 02:53:00;;;;;;;5.70;4.70;;;16.60;75.70;;;;;;5052811;28;20411;-68
2022/04/28 02:55:28;;;;;;;7.30;4.87;;;16.60;75.70;;;;;;5052444;28;20445;-68
2022/04/28 02:57:56;;;;;;;6.63;4.97;;;16.50;75.50;;;;;;5052418;28;20452;-68
2022/04/28 03:00:24;;;;;;;5.23;4.60;;;16.50;75.70;;;;;;5035860;28;20426;-68
2022/04/28 03:03:04;;;;;;;6.83;4.43;;;16.50;75.60;;;;;;5036737;28;20833;-68
2022/04/28 03:10:46;;;;;;;7.50;4.70;;;16.50;75.60;;;;;;5035813;28;20842;-68
2022/04/28 03:11:11;;;;;;;6.30;4.83;;;16.40;75.70;;;;;;5052198;28;20415;-68
2022/04/28 03:13:39;;;;;;;4.57;4.17;;;16.40;75.70;;;;;;5052239;28;20402;-68
2022/04/28 03:16:07;;;;;;;5.40;4.87;;;16.40;75.70;;;;;;5035956;28;20998;-68
2022/04/28 03:18:58;;;;;;;5.63;4.87;;;16.40;75.80;;;;;;5053027;28;20446;-68
2022/04/28 03:21:27;;;;;;;5.63;5.13;;;16.40;75.90;;;;;;5053095;28;20401;-68
2022/04/28 03:23:55;;;;;;;6.80;4.60;;;16.40;75.90;;;;;;5052103;28;20397;-69
2022/04/28 03:26:23;;;;;;;5.10;4.47;;;16.30;75.90;;;;;;5053143;28;20420;-68
2022/04/28 03:28:49;;;;;;;8.13;5.30;;;16.30;75.90;;;;;;5052990;28;20422;-68
2022/04/28 03:31:18;;;;;;;5.20;4.40;;;16.30;75.90;;;;;;5051974;28;20888;-68
2022/04/28 03:34:06;;;;;;;6.40;5.00;;;16.30;75.90;;;;;;5053015;28;20505;-68
2022/04/28 03:36:51;;;;;;;8.77;4.90;;;16.30;76.00;;;;;;5051877;28;20816;-68
2022/04/28 03:39:19;;;;;;;5.90;5.17;;;16.30;76.00;;;;;;5051696;28;20434;-68
2022/04/28 03:41:47;;;;;;;6.07;5.30;;;16.20;76.00;;;;;;5035134;28;20460;-68
2022/04/28 03:44:17;;;;;;;5.33;4.67;;;16.20;76.10;;;;;;5035834;28;20477;-68
2022/04/28 03:46:46;;;;;;;7.50;5.73;;;16.30;76.20;;;;;;5051823;28;20449;-68
2022/04/28 03:49:15;;;;;;;9.07;5.93;;;16.20;76.10;;;;;;5051775;28;20440;-68
2022/04/28 03:51:46;;;;;;;5.33;4.83;;;16.20;76.20;;;;;;5051805;28;20819;-68
2022/04/28 03:54:12;;;;;;;6.37;5.67;;;16.20;76.30;;;;;;5051665;28;20396;-68
2022/04/28 03:56:41;;;;;;;5.73;5.20;;;16.20;76.20;;;;;;5035179;28;21023;-68
2022/04/28 03:59:11;;;;;;;5.47;4.97;;;16.20;76.20;;;;;;5051772;28;20444;-68
2022/04/28 04:01:52;;;;;;;8.00;5.77;;;16.10;76.20;;;;;;5034892;28;20482;-68
2022/04/28 04:04:20;;;;;;;6.60;5.17;;;16.10;76.20;;;;;;5035172;28;20423;-68
2022/04/28 04:06:58;;;;;;;7.77;5.27;;;16.10;76.20;;;;;;5051627;28;20439;-68
2022/04/28 04:09:36;;;;;;;8.03;5.40;;;16.10;76.30;;;;;;5051751;28;20782;-68
2022/04/28 04:12:08;;;;;;;7.70;5.07;;;16.10;76.30;;;;;;5051514;28;20397;-68
2022/04/28 04:14:44;;;;;;;5.40;4.90;;;16.00;76.20;;;;;;5021119;28;20421;-68
2022/04/28 04:17:14;;;;;;;8.03;4.73;;;16.10;76.40;;;;;;5055196;28;20766;-68
2022/04/28 04:19:40;;;;;;;8.00;5.53;;;16.00;76.40;;;;;;5055343;28;20456;-68
2022/04/28 04:22:06;;;;;;;8.27;4.90;;;16.00;76.30;;;;;;5055048;28;20944;-68
2022/04/28 04:24:35;;;;;;;6.07;4.83;;;16.00;76.30;;;;;;5056495;28;20927;-68
2022/04/28 04:27:02;;;;;;;6.07;5.20;;;16.00;76.50;;;;;;5022135;28;20529;-68
2022/04/28 04:33:00;;;;;;;6.10;5.50;;;15.90;76.40;;;;;;4995125;28;20428;-68
2022/04/28 04:35:29;;;;;;;6.83;5.43;;;15.90;76.50;;;;;;5012734;28;20806;-68
2022/04/28 04:37:56;;;;;;;5.40;4.90;;;15.90;76.50;;;;;;5038432;28;20435;-68
2022/04/28 04:40:26;;;;;;;6.27;5.60;;;15.90;76.60;;;;;;5038876;28;20965;-68
2022/04/28 04:42:52;;;;;;;6.80;5.73;;;15.90;76.70;;;;;;5054880;28;20445;-68
2022/04/28 04:45:21;;;;;;;6.63;5.30;;;15.80;76.60;;;;;;5054874;28;20435;-68
2022/04/28 04:48:03;;;;;;;6.60;5.37;;;15.80;76.70;;;;;;5038231;28;20495;-68
2022/04/28 04:50:49;;;;;;;7.37;5.83;;;15.80;76.70;;;;;;5038407;28;20493;-68
2022/04/28 04:53:22;;;;;;;9.00;5.70;;;15.80;76.70;;;;;;5038195;28;20428;-68
2022/04/28 04:55:48;;;;;;;7.53;5.80;;;15.80;76.80;;;;;;5038248;28;20406;-68
2022/04/28 04:58:15;;;;;;;6.00;5.20;;;15.80;76.90;;;;;;5054526;28;20548;-68
2022/04/28 05:00:44;;;;;;;8.43;5.03;;;15.70;76.80;;;;;;5054633;28;20395;-68
2022/04/28 05:03:32;;;;;;;5.73;5.13;;;15.70;76.90;;;;;;5054061;28;20520;-68
2022/04/28 05:06:01;;;;;;;8.13;5.03;;;15.70;76.90;;;;;;5055679;28;21007;-68
2022/04/28 05:08:34;;;;;;;7.67;5.50;;;15.70;77.00;;;;;;5054432;28;20458;-68
2022/04/28 05:11:04;;;;;;;6.17;5.37;;;15.70;77.10;;;;;;5054301;28;20435;-68
2022/04/28 05:13:34;;;;;;;5.80;5.20;;;15.70;77.10;;;;;;5054275;28;20405;-68
2022/04/28 05:16:04;;;;;;;9.43;5.80;;;15.70;77.20;;;;;;5054217;28;20430;-68
2022/04/28 05:19:02;;;;;;;8.03;5.90;;;15.70;77.20;;;;;;5031999;28;20450;-68
2022/04/28 05:21:40;;;;;;;9.40;5.43;;;15.60;77.10;;;;;;5055026;28;20430;-68
2022/04/28 05:24:27;;;;;;;6.33;5.37;;;15.60;77.10;;;;;;5055459;28;20760;-68
2022/04/28 05:27:14;;;;;;;7.50;5.20;;;15.60;77.20;;;;;;5055150;28;20409;-68
2022/04/28 05:29:52;;;;;;;7.50;6.27;;;15.60;77.30;;;;;;5054125;28;20395;-68
2022/04/28 05:32:59;;;;;;;6.20;5.30;;;15.60;77.30;;;;;;4993586;28;20556;-68
2022/04/28 05:35:43;;;;;;;6.33;5.07;;;15.50;77.30;;;;;;4993713;28;20402;-68
2022/04/28 05:38:14;;;;;;;9.57;5.97;;;15.50;77.40;;;;;;5024208;28;20444;-68
2022/04/28 05:40:41;;;;;;;7.17;5.43;;;15.50;77.50;;;;;;5037156;28;20854;-68
2022/04/28 05:45:58;;;;;;;7.17;5.63;;;15.50;77.60;;;;;;5053649;28;20897;-68
2022/04/28 05:48:24;;;;;;;6.43;5.50;;;15.50;77.60;;;;;;5037274;28;20451;-68
2022/04/28 05:50:58;;;;;;;7.50;6.03;;;15.50;77.70;;;;;;5037639;28;20398;-68
2022/04/28 05:53:33;;;;;;;9.60;6.07;;;15.50;77.80;;;;;;5053548;28;20429;-68
2022/04/28 05:56:07;;;;;;;7.83;5.20;;;15.50;77.70;;;;;;5053727;28;20446;-68
2022/04/28 05:58:47;;;;;;;8.57;5.90;;;15.50;77.70;;;;;;5037428;28;20457;-68
2022/04/28 06:01:31;;;;;;;7.60;5.97;;;15.40;77.70;;;;;;5054310;28;20432;-68
2022/04/28 06:04:07;;;;;;;7.60;5.47;;;15.40;77.70;;;;;;5053729;28;20420;-68
2022/04/28 06:06:34;;;;;;;7.80;6.03;;;15.40;77.80;;;;;;5036832;28;20419;-68
2022/04/28 06:09:05;;;;;;;9.07;5.93;;;15.40;77.90;;;;;;5036923;28;20448;-68
2022/04/28 06:11:32;;;;;;;9.90;6.07;;;15.40;78.00;;;;;;5036745;28;20415;-68
2022/04/28 06:14:00;;;;;;;7.10;6.30;;;15.40;78.00;;;;;;5052968;28;20445;-68
2022/04/28 06:17:01;;;;;;;8.13;6.03;;;15.40;78.00;;;;;;5052902;28;20422;-68
2022/04/28 06:19:29;;;;;;;7.40;6.30;;;15.40;78.10;;;;;;5053061;28;20904;-68
2022/04/28 06:22:04;;;;;;;9.77;7.20;;;15.30;78.00;;;;;;5053996;28;20437;-68
2022/04/28 06:24:39;;;;;;;8.57;6.43;;;15.30;78.80;;;;;;5037199;28;20482;-68
2022/04/28 06:27:06;;;;;;;9.40;6.10;;;15.30;78.10;;;;;;5052748;28;20426;-68
2022/04/28 06:29:36;;;;;;;8.30;6.73;;;15.30;78.20;;;;;;5036472;28;20414;-68
2022/04/28 06:32:08;;;;;;;9.20;6.37;;;15.30;78.20;;;;;;5052803;28;20406;-68
2022/04/28 06:34:47;;;;;;;7.47;6.60;;;15.30;78.30;;;;;;5053834;28;20666;-68
2022/04/28 06:37:24;;;;;;;10.03;6.90;;;15.30;78.30;;;;;;5035768;28;20977;-69
2022/04/28 06:39:57;;;;;;;6.40;5.73;;;15.30;78.30;;;;;;5052860;28;20425;-68
2022/04/28 06:42:28;;;;;;;14.57;7.10;;;15.30;78.40;;;;;;5052621;28;20530;-69
2022/04/28 06:45:13;;;;;;;9.43;6.60;;;15.30;78.50;;;;;;5052586;28;20992;-68
2022/04/28 06:48:01;;;;;;;8.10;6.33;;;15.30;78.60;;;;;;5052527;28;20447;-68
2022/04/28 06:50:39;;;;;;;7.20;5.67;;;15.30;78.60;;;;;;5052651;28;20427;-68
2022/04/28 06:53:23;;;;;;;11.20;6.60;;;15.30;78.70;;;;;;5052500;28;20408;-68
2022/04/28 06:56:02;;;;;;;7.30;5.93;;;15.30;78.80;;;;;;5053881;28;20452;-68
2022/04/28 06:58:32;;;;;;;6.73;6.00;;;15.30;78.80;;;;;;5035647;28;20485;-68
2022/04/28 07:01:05;;;;;;;9.30;5.27;;;15.30;78.80;;;;;;5035806;28;20481;-69
2022/04/28 07:03:32;;;;;;;8.30;5.57;;;15.30;78.80;;;;;;5035710;28;20446;-68
2022/04/28 07:06:01;;;;;;;8.17;5.73;;;15.30;78.80;;;;;;5035788;28;20408;-68
2022/04/28 07:08:30;;;;;;;8.17;6.20;;;15.30;78.80;;;;;;5052118;28;20460;-68
2022/04/28 07:10:57;;;;;;;9.53;5.90;;;15.30;78.80;;;;;;5052308;28;20478;-68
2022/04/28 07:13:26;;;;;;;7.77;6.00;;;15.30;78.80;;;;;;5052170;28;20412;-68
2022/04/28 07:16:01;;;;;;;7.80;6.60;;;15.30;78.80;;;;;;5053308;28;20434;-68
2022/04/28 07:18:39;;;;;;;6.67;5.20;;;15.30;78.80;;;;;;5052108;28;20454;-68
2022/04/28 07:21:08;;;;;;;5.67;4.73;;;15.30;78.80;;;;;;5035189;28;20439;-69
2022/04/28 07:23:34;;;;;;;5.80;5.07;;;15.30;78.80;;;;;;5018855;28;20891;-68
2022/04/28 07:26:08;;;;;;;7.20;6.00;;;15.30;78.80;;;;;;5035556;28;20495;-68
2022/04/28 07:28:35;;;;;;;9.10;6.17;;;15.30;78.70;;;;;;5051919;28;20854;-68
2022/04/28 07:31:04;;;;;;;7.50;5.63;;;15.30;78.70;;;;;;5053021;28;20879;-68
2022/04/28 07:33:50;;;;;;;6.30;5.70;;;15.30;78.70;;;;;;5053099;28;20404;-69
2022/04/28 07:36:35;;;;;;;9.27;5.83;;;15.40;78.80;;;;;;5053130;28;20447;-68
2022/04/28 07:39:19;;;;;;;7.27;6.40;;;15.30;78.70;;;;;;5052853;28;20442;-68
2022/04/28 07:42:11;;;;;;;6.93;5.13;;;15.40;78.90;;;;;;5049976;28;20470;-68
2022/04/28 07:44:41;;;;;;;7.20;5.90;;;15.40;78.80;;;;;;5051885;28;20410;-68
2022/04/28 07:47:10;;;;;;;7.27;5.47;;;15.40;78.90;;;;;;5051755;28;20511;-68
2022/04/28 07:49:53;;;;;;;7.07;5.83;;;15.40;78.90;;;;;;5052962;28;20400;-68
2022/04/28 07:52:22;;;;;;;7.60;5.27;;;15.40;78.90;;;;;;5056815;28;20409;-68
2022/04/28 07:54:52;;;;;;;8.73;5.70;;;15.40;79.00;;;;;;5039743;28;20419;-68
2022/04/28 07:57:23;;;;;;;8.30;5.20;;;15.40;79.00;;;;;;5039231;28;20446;-68
2022/04/28 07:59:52;;;;;;;7.07;5.47;;;15.40;79.00;;;;;;5055718;28;20398;-68
2022/04/28 08:02:21;;;;;;;7.80;5.67;;;15.40;78.90;;;;;;5038910;28;20475;-68
2022/04/28 08:04:56;;;;;;;6.60;5.53;;;15.40;79.00;;;;;;5039257;28;20414;-68
2022/04/28 08:07:28;;;;;;;9.67;5.20;;;15.50;79.10;;;;;;5055344;28;20441;-68
2022/04/28 08:09:54;;;;;;;6.90;5.10;;;15.40;79.00;;;;;;5039072;28;20802;-68
2022/04/28 08:12:23;;;;;;;6.60;5.90;;;15.50;79.10;;;;;;5055604;28;20920;-68
2022/04/28 08:14:49;;;;;;;7.47;5.07;;;15.50;79.20;;;;;;5055340;28;20437;-68
2022/04/28 08:17:20;;;;;;;6.33;5.73;;;15.50;79.20;;;;;;5039435;28;20450;-68
2022/04/28 08:19:51;;;;;;;10.17;5.70;;;15.50;79.30;;;;;;5055442;28;20409;-68
2022/04/28 08:22:19;;;;;;;9.30;6.03;;;15.50;79.30;;;;;;5055339;28;20843;-68
2022/04/28 08:24:47;;;;;;;8.33;6.27;;;15.50;79.20;;;;;;5055213;28;20398;-68
2022/04/28 08:27:16;;;;;;;8.07;5.67;;;15.50;79.20;;;;;;5022698;28;20978;-68
2022/04/28 08:29:42;;;;;;;8.57;6.47;;;15.50;79.20;;;;;;5022260;28;20412;-68
2022/04/28 08:32:23;;;;;;;8.37;5.27;;;15.50;79.10;;;;;;5055184;28;20916;-68
2022/04/28 08:34:54;;;;;;;6.63;5.77;;;15.60;79.30;;;;;;5023074;28;20981;-68
2022/04/28 08:37:22;;;;;;;7.50;5.33;;;15.60;79.20;;;;;;5054736;28;20426;-68
2022/04/28 08:39:50;;;;;;;10.77;5.90;;;15.60;79.30;;;;;;5038358;28;20793;-68
2022/04/28 08:42:20;;;;;;;8.07;6.10;;;15.60;79.30;;;;;;5054970;28;20447;-69
2022/04/28 08:45:05;;;;;;;6.33;5.23;;;15.60;79.30;;;;;;5055108;28;20411;-68
2022/04/28 08:48:02;;;;;;;8.87;6.63;;;15.70;79.40;;;;;;5054693;28;20512;-68
2022/04/28 08:50:46;;;;;;;7.70;5.17;;;15.70;79.50;;;;;;5054917;28;20411;-68
2022/04/28 08:53:15;;;;;;;8.63;6.60;;;15.70;79.50;;;;;;5054703;28;20430;-68
2022/04/28 08:55:45;;;;;;;6.17;5.57;;;15.70;79.60;;;;;;5038442;28;20396;-68
2022/04/28 08:58:11;;;;;;;8.57;6.10;;;15.80;79.60;;;;;;5054560;28;20441;-68
2022/04/28 09:00:47;;;;;;;6.03;5.43;;;15.80;79.70;;;;;;5053864;28;20414;-68
2022/04/28 09:03:28;;;;;;;8.13;5.83;;;15.80;79.70;;;;;;5039343;28;20453;-68
2022/04/28 09:06:20;;;;;;;7.77;5.40;;;15.90;80.70;;;;;;5054664;28;20475;-68
2022/04/28 09:09:13;;;;;;;10.17;5.47;;;15.90;79.90;;;;;;5040256;28;20863;-68
2022/04/28 09:12:01;;;;;;;10.33;5.90;;;15.90;79.80;;;;;;5055490;28;20499;-68
2022/04/28 09:15:12;;;;;;;8.33;5.33;;;15.90;79.90;;;;;;4993969;28;20451;-68
2022/04/28 09:17:47;;;;;;;9.60;6.03;;;16.00;80.10;;;;;;5048119;28;20438;-68
2022/04/28 09:20:21;;;;;;;7.70;5.90;;;16.00;80.10;;;;;;5054086;28;20450;-68
2022/04/28 09:22:51;;;;;;;8.73;5.93;;;16.00;80.10;;;;;;5037522;28;20458;-68
2022/04/28 09:25:24;;;;;;;6.80;5.63;;;16.10;80.50;;;;;;5054162;28;20405;-69
2022/04/28 09:27:56;;;;;;;6.13;5.20;;;16.10;80.10;;;;;;5037444;28;20444;-69
2022/04/28 09:30:26;;;;;;;5.67;5.03;;;16.20;80.20;;;;;;5037657;28;20430;-68
2022/04/28 09:33:18;;;;;;;8.17;6.03;;;16.20;80.10;;;;;;5055205;28;20456;-68
2022/04/28 09:36:05;;;;;;;7.67;5.43;;;16.20;80.00;;;;;;5040159;28;20491;-69
2022/04/28 09:38:53;;;;;;;6.80;6.10;;;16.30;80.10;;;;;;5053691;28;20490;-68
2022/04/28 09:44:12;;;;;;;7.87;5.30;;;16.30;80.00;;;;;;5037621;28;20437;-68
2022/04/28 09:46:43;;;;;;;8.90;5.17;;;16.40;80.00;;;;;;5053837;28;20487;-68
2022/04/28 09:49:12;;;;;;;10.00;5.83;;;16.40;80.00;;;;;;5053586;28;20963;-68
2022/04/28 09:52:10;;;;;;;6.17;5.23;;;16.50;80.10;;;;;;5037013;28;20429;-68
2022/04/28 09:55:10;;;;;;;6.30;5.40;;;16.50;80.00;;;;;;5054948;28;20403;-68
2022/04/28 09:58:06;;;;;;;8.47;5.50;;;16.50;79.90;;;;;;5048140;28;20509;-68
2022/04/28 10:00:35;;;;;;;6.60;5.40;;;16.60;79.90;;;;;;5036965;28;20780;-68
2022/04/28 10:03:04;;;;;;;5.47;4.90;;;16.60;79.80;;;;;;5036629;28;20470;-68
2022/04/28 10:05:38;;;;;;;6.97;5.10;;;16.70;79.90;;;;;;5053577;28;20419;-68
2022/04/28 10:08:38;;;;;;;6.30;5.00;;;16.70;79.70;;;;;;5035461;28;20951;-68
2022/04/28 10:11:11;;;;;;;5.83;5.23;;;16.80;79.60;;;;;;5036685;28;20469;-68
2022/04/28 10:13:42;;;;;;;7.47;5.60;;;16.80;79.50;;;;;;5035746;28;20509;-68
2022/04/28 10:16:15;;;;;;;6.20;4.80;;;16.80;79.40;;;;;;5053186;28;20848;-68
2022/04/28 10:18:48;;;;;;;6.17;5.53;;;16.90;79.40;;;;;;5053249;28;20459;-68
2022/04/28 10:21:25;;;;;;;8.23;5.90;;;16.90;80.20;;;;;;5036985;28;20517;-68
2022/04/28 10:32:54;;;;;;;5.60;4.87;;;17.10;79.20;;;;;;5052969;28;20811;-68
2022/04/28 10:35:47;;;;;;;6.43;5.53;;;17.10;79.10;;;;;;5052791;28;20813;-68
2022/04/28 10:38:20;;;;;;;6.43;5.33;;;17.20;79.00;;;;;;5053728;28;20496;-68
2022/04/28 10:41:09;;;;;;;6.90;5.70;;;17.20;78.90;;;;;;5036542;28;20424;-68
2022/04/28 10:43:40;;;;;;;5.87;5.33;;;17.20;78.80;;;;;;5035931;28;20472;-68
2022/04/28 10:46:11;;;;;;;7.23;6.10;;;17.30;79.60;;;;;;5019437;28;20488;-68
2022/04/28 10:48:42;;;;;;;8.40;5.80;;;17.30;78.70;;;;;;5052636;28;20457;-68
2022/04/28 10:51:19;;;;;;;5.67;5.07;;;17.30;78.50;;;;;;5053609;28;20409;-68
2022/04/28 10:54:23;;;;;;;5.23;4.73;;;17.40;78.50;;;;;;5053703;28;20775;-68
2022/04/28 10:57:02;;;;;;;5.77;5.27;;;17.40;78.40;;;;;;5053640;28;20457;-68
2022/04/28 10:59:37;;;;;;;10.20;5.60;;;17.50;78.40;;;;;;5052466;28;20435;-68
2022/04/28 11:02:18;;;;;;;6.03;5.00;;;17.50;78.40;;;;;;5053419;28;20866;-68
2022/04/28 11:05:25;;;;;;;6.77;5.83;;;17.50;78.40;;;;;;5052192;28;20877;-68
2022/04/28 11:07:53;;;;;;;8.33;5.40;;;17.60;78.40;;;;;;5029171;28;20444;-68
2022/04/28 11:10:19;;;;;;;8.33;6.03;;;17.60;78.20;;;;;;5035620;28;20463;-68
2022/04/28 11:12:45;;;;;;;7.77;5.80;;;17.60;78.20;;;;;;5052213;28;20419;-68
2022/04/28 11:15:17;;;;;;;7.03;4.93;;;17.70;78.10;;;;;;5052251;28;20424;-68
2022/04/28 11:17:45;;;;;;;5.73;5.10;;;17.70;77.80;;;;;;5053509;28;20470;-68
2022/04/28 11:20:14;;;;;;;8.77;6.17;;;17.80;78.00;;;;;;5052046;28;20472;-68
2022/04/28 11:22:52;;;;;;;7.47;5.40;;;17.80;78.00;;;;;;5051968;28;20449;-68
2022/04/28 11:25:20;;;;;;;10.17;5.40;;;17.90;78.00;;;;;;5053026;28;20902;-68
2022/04/28 11:27:51;;;;;;;6.70;5.33;;;17.90;78.00;;;;;;5053119;28;20438;-68
2022/04/28 11:30:24;;;;;;;8.80;5.30;;;17.90;78.00;;;;;;5035488;28;20437;-68
2022/04/28 11:32:52;;;;;;;5.50;4.70;;;18.00;78.00;;;;;;5051966;28;20500;-68
2022/04/28 11:35:20;;;;;;;6.47;4.70;;;18.00;77.90;;;;;;5053123;28;20405;-68
2022/04/28 11:37:52;;;;;;;8.63;6.13;;;18.00;77.60;;;;;;5052979;28;20452;-68
2022/04/28 11:40:18;;;;;;;7.87;5.70;;;18.10;77.60;;;;;;5035451;28;20429;-68
2022/04/28 11:42:45;;;;;;;6.97;4.97;;;18.10;77.20;;;;;;5051733;28;20440;-69
2022/04/28 11:45:12;;;;;;;6.90;6.00;;;18.10;77.10;;;;;;5035320;28;20477;-68
2022/04/28 11:47:46;;;;;;;9.33;5.83;;;18.20;77.10;;;;;;5052943;28;20449;-68
2022/04/28 11:50:30;;;;;;;6.53;5.37;;;18.20;76.90;;;;;;5052891;28;20460;-68
2022/04/28 11:53:12;;;;;;;5.50;4.80;;;18.30;76.80;;;;;;5053095;28;20460;-68
2022/04/28 11:55:44;;;;;;;9.83;5.57;;;18.30;76.90;;;;;;5035517;28;20444;-68
2022/04/28 11:58:13;;;;;;;7.63;5.60;;;18.30;76.80;;;;;;5051631;28;20445;-68
2022/04/28 12:00:46;;;;;;;5.67;5.03;;;18.30;76.80;;;;;;5051689;28;20814;-68
2022/04/28 12:03:32;;;;;;;6.03;5.43;;;18.40;76.60;;;;;;5051495;28;20491;-68
2022/04/28 12:06:07;;;;;;;8.30;5.23;;;18.40;76.60;;;;;;5035293;28;20481;-68
2022/04/28 12:08:39;;;;;;;6.03;4.93;;;18.40;76.60;;;;;;5052967;28;20876;-68
2022/04/28 12:14:27;;;;;;;5.47;4.53;;;18.50;76.70;;;;;;5051672;28;20434;-68
2022/04/28 12:19:56;;;;;;;6.00;5.30;;;18.60;76.50;;;;;;5052833;28;20773;-68
2022/04/28 12:22:35;;;;;;;6.17;4.50;;;18.60;76.30;;;;;;5034973;28;20610;-68
2022/04/28 12:25:06;;;;;;;10.83;5.33;;;18.60;76.10;;;;;;5052610;28;20395;-68
2022/04/28 12:28:06;;;;;;;6.70;5.10;;;18.70;76.20;;;;;;5034893;28;20520;-68
2022/04/28 12:30:35;;;;;;;5.77;4.63;;;18.70;76.10;;;;;;5048134;28;20465;-69
2022/04/28 12:33:08;;;;;;;5.73;4.90;;;18.70;76.10;;;;;;5052478;28;20406;-68
2022/04/28 12:35:37;;;;;;;6.73;4.37;;;18.70;76.00;;;;;;5053313;28;20407;-68
2022/04/28 12:38:06;;;;;;;8.43;5.10;;;18.80;76.00;;;;;;5054920;28;20474;-68
2022/04/28 12:40:39;;;;;;;10.30;5.90;;;18.80;76.00;;;;;;5056304;28;20395;-68
2022/04/28 12:43:08;;;;;;;9.90;6.20;;;18.90;75.90;;;;;;5055008;28;20961;-68
2022/04/28 12:45:42;;;;;;;10.00;6.33;;;18.90;75.30;;;;;;5054921;28;20430;-68
2022/04/28 12:48:23;;;;;;;8.83;5.20;;;18.90;74.80;;;;;;5055959;28;20444;-68
2022/04/28 12:50:50;;;;;;;9.03;5.30;;;19.00;75.00;;;;;;5054801;28;20395;-68
2022/04/28 12:53:32;;;;;;;6.83;5.00;;;19.00;75.00;;;;;;5054776;28;20449;-68
2022/04/28 12:56:07;;;;;;;7.83;5.23;;;19.00;75.00;;;;;;5021501;28;20907;-68
2022/04/28 12:58:46;;;;;;;6.73;5.07;;;19.10;75.00;;;;;;5055825;28;20975;-68
2022/04/28 13:01:15;;;;;;;11.63;4.97;;;19.10;74.90;;;;;;5055848;28;20403;-68
2022/04/28 13:03:51;;;;;;;7.13;5.07;;;19.10;74.90;;;;;;5021378;28;20844;-68
2022/04/28 13:06:17;;;;;;;8.73;5.30;;;19.10;74.90;;;;;;5054546;28;20403;-68
2022/04/28 13:08:44;;;;;;;11.47;4.70;;;19.20;75.00;;;;;;5055522;28;20435;-68
2022/04/28 13:11:17;;;;;;;8.23;5.03;;;19.20;75.00;;;;;;5054486;28;20449;-68
2022/04/28 13:13:43;;;;;;;7.03;4.87;;;19.30;75.10;;;;;;5054323;28;20399;-68
2022/04/28 13:16:09;;;;;;;6.43;5.07;;;19.30;75.00;;;;;;5037744;28;20405;-68
2022/04/28 13:18:37;;;;;;;8.30;5.40;;;19.30;74.80;;;;;;5037902;28;20511;-69
2022/04/28 13:21:03;;;;;;;8.70;5.43;;;19.30;74.50;;;;;;5054313;28;20429;-68
2022/04/28 13:23:29;;;;;;;6.40;4.67;;;19.40;74.40;;;;;;5054156;28;20537;-68
2022/04/28 13:25:57;;;;;;;7.30;4.83;;;19.40;74.20;;;;;;5054161;28;21018;-68
2022/04/28 13:28:27;;;;;;;5.43;4.70;;;19.50;74.20;;;;;;5071351;22;21016;-73
2022/04/28 13:30:53;;;;;;;9.93;5.20;;;19.50;74.10;;;;;;5063053;28;20422;-73
2022/04/28 13:33:20;;;;;;;7.77;5.10;;;19.50;74.00;;;;;;5056205;28;20513;-74
2022/04/28 13:35:46;;;;;;;7.90;4.70;;;19.50;74.10;;;;;;5047292;28;20556;-73
2022/04/28 13:38:16;;;;;;;6.50;4.63;;;19.60;74.20;;;;;;5067902;28;20444;-74
2022/04/28 13:40:49;;;;;;;8.33;4.67;;;19.60;74.10;;;;;;5065206;28;20521;-75
2022/04/28 13:43:15;;;;;;;10.87;4.63;;;19.70;74.20;;;;;;5049023;28;20466;-75
2022/04/28 13:45:43;;;;;;;6.70;5.10;;;19.70;74.10;;;;;;5055241;28;20439;-75
2022/04/28 13:48:10;;;;;;;7.50;4.63;;;19.70;74.10;;;;;;5056992;28;20200;-74
2022/04/28 13:50:39;;;;;;;8.50;4.77;;;19.70;74.00;;;;;;5036229;28;20835;-73